createdAt,value
2023-05-25T00:01:02.017Z,8.77
2023-05-25T00:03:31.473Z,8.95
2023-05-25T00:05:59.001Z,8.57
2023-05-25T00:08:25.501Z,8.50
2023-05-25T00:10:51.969Z,8.40
2023-05-25T00:13:18.470Z,8.20
2023-05-25T00:15:45.410Z,9.10
2023-05-25T00:18:13.095Z,8.98
2023-05-25T00:20:39.970Z,7.80
2023-05-25T00:23:06.397Z,8.18
2023-05-25T00:25:32.774Z,8.25
2023-05-25T00:27:59.125Z,8.23
2023-05-25T00:30:25.760Z,8.23
2023-05-25T00:32:53.999Z,9.02
2023-05-25T00:35:20.824Z,8.25
2023-05-25T00:37:47.621Z,8.02
2023-05-25T00:40:18.833Z,9.93
2023-05-25T00:42:47.992Z,8.10
2023-05-25T00:45:14.629Z,8.07
2023-05-25T00:47:41.513Z,8.35
2023-05-25T00:50:09.701Z,8.85
2023-05-25T00:52:36.436Z,7.75
2023-05-25T00:55:03.523Z,8.05
2023-05-25T00:57:34.094Z,8.40
2023-05-25T01:00:02.245Z,7.75
2023-05-25T01:02:29.208Z,7.97
2023-05-25T01:04:59.833Z,8.55
2023-05-25T01:07:27.979Z,8.13
2023-05-25T01:09:58.640Z,8.73
2023-05-25T01:12:35.221Z,7.78
2023-05-25T01:15:04.523Z,8.77
2023-05-25T01:17:30.954Z,8.57
2023-05-25T01:22:34.112Z,7.38
2023-05-25T01:25:07.186Z,7.90
2023-05-25T01:27:43.591Z,7.10
2023-05-25T01:30:13.991Z,8.48
2023-05-25T01:32:42.721Z,8.18
2023-05-25T01:35:10.048Z,7.70
2023-05-25T01:37:37.661Z,7.75
2023-05-25T01:40:08.493Z,6.63
2023-05-25T01:42:34.978Z,6.63
2023-05-25T01:45:01.716Z,7.47
2023-05-25T01:47:37.473Z,6.53
2023-05-25T01:50:29.456Z,7.20
2023-05-25T01:53:15.622Z,7.28
2023-05-25T01:55:54.888Z,7.07
2023-05-25T01:58:23.338Z,7.97
2023-05-25T02:00:51.525Z,7.60
2023-05-25T02:03:18.692Z,7.28
2023-05-25T02:05:46.365Z,7.53
2023-05-25T02:08:13.088Z,8.52
2023-05-25T02:10:39.539Z,7.45
2023-05-25T02:13:06.038Z,8.27
2023-05-25T02:15:33.821Z,7.28
2023-05-25T02:18:00.768Z,7.70
2023-05-25T02:20:28.425Z,8.40
2023-05-25T02:22:55.210Z,7.80
2023-05-25T02:25:21.645Z,7.43
2023-05-25T02:27:48.296Z,6.65
2023-05-25T02:30:15.064Z,6.85
2023-05-25T02:32:41.754Z,7.35
2023-05-25T02:35:08.519Z,8.15
2023-05-25T02:37:35.331Z,7.57
2023-05-25T02:40:01.838Z,7.97
2023-05-25T02:42:28.471Z,7.90
2023-05-25T02:44:54.885Z,8.10
2023-05-25T02:47:21.778Z,8.13
2023-05-25T02:49:48.457Z,8.32
2023-05-25T02:52:14.817Z,8.07
2023-05-25T02:54:41.915Z,7.13
2023-05-25T02:57:08.650Z,8.02
2023-05-25T02:59:35.138Z,8.60
2023-05-25T03:02:01.527Z,7.97
2023-05-25T03:04:28.499Z,8.40
2023-05-25T03:06:54.877Z,8.10
2023-05-25T03:09:21.565Z,6.78
2023-05-25T03:11:48.257Z,8.57
2023-05-25T03:14:14.714Z,8.27
2023-05-25T03:16:42.684Z,7.70
2023-05-25T03:19:10.585Z,7.80
2023-05-25T03:21:37.797Z,8.48
2023-05-25T03:24:05.550Z,8.40
2023-05-25T03:26:32.187Z,8.48
2023-05-25T03:28:58.805Z,8.25
2023-05-25T03:31:26.475Z,8.90
2023-05-25T03:33:53.099Z,8.77
2023-05-25T03:36:19.775Z,8.52
2023-05-25T03:38:46.700Z,7.90
2023-05-25T03:41:13.326Z,9.05
2023-05-25T03:43:39.976Z,8.80
2023-05-25T03:46:08.796Z,8.52
2023-05-25T03:48:35.420Z,7.90
2023-05-25T03:51:01.809Z,9.77
2023-05-25T03:53:28.405Z,8.73
2023-05-25T03:55:55.104Z,8.88
2023-05-25T03:58:22.529Z,8.05
2023-05-25T04:00:52.638Z,9.40
2023-05-25T04:03:21.129Z,9.05
2023-05-25T04:08:18.012Z,8.98
2023-05-25T04:10:46.129Z,9.77
2023-05-25T04:13:14.440Z,10.90
2023-05-25T04:15:41.149Z,13.30
2023-05-25T04:18:07.685Z,14.35
2023-05-25T04:20:34.361Z,13.95
2023-05-25T04:23:00.854Z,13.45
2023-05-25T04:25:29.535Z,14.02
2023-05-25T04:27:56.903Z,14.50
2023-05-25T04:30:23.658Z,13.05
2023-05-25T04:32:50.439Z,13.88
2023-05-25T04:35:17.098Z,11.90
2023-05-25T04:37:43.576Z,12.50
2023-05-25T04:40:14.431Z,12.23
2023-05-25T04:42:41.877Z,10.57
2023-05-25T04:45:10.256Z,10.07
2023-05-25T04:47:37.753Z,9.60
2023-05-25T04:50:04.415Z,9.48
2023-05-25T04:52:30.756Z,9.57
2023-05-25T04:54:59.427Z,9.77
2023-05-25T04:57:28.613Z,9.85
2023-05-25T04:59:55.109Z,9.38
2023-05-25T05:02:21.795Z,9.15
2023-05-25T05:04:48.477Z,9.15
2023-05-25T05:07:14.938Z,9.07
2023-05-25T05:09:44.260Z,9.40
2023-05-25T05:12:12.079Z,9.18
2023-05-25T05:14:38.866Z,10.15
2023-05-25T05:17:05.626Z,9.07
2023-05-25T05:19:33.232Z,8.77
2023-05-25T05:22:01.374Z,9.67
2023-05-25T05:24:30.499Z,9.63
2023-05-25T05:26:58.969Z,9.30
2023-05-25T05:29:27.037Z,8.65
2023-05-25T05:31:55.590Z,9.03
2023-05-25T05:34:22.096Z,9.70
2023-05-25T05:36:57.313Z,8.70
2023-05-25T05:39:27.315Z,8.55
2023-05-25T05:44:21.587Z,8.38
2023-05-25T05:46:48.390Z,8.25
2023-05-25T05:49:15.760Z,9.27
2023-05-25T05:51:42.402Z,8.27
2023-05-25T05:54:08.864Z,10.48
2023-05-25T05:56:37.028Z,9.52
2023-05-25T05:59:05.342Z,8.77
2023-05-25T06:01:34.843Z,9.02
2023-05-25T06:04:01.483Z,10.85
2023-05-25T06:06:28.566Z,9.65
2023-05-25T06:08:55.376Z,8.45
2023-05-25T06:11:22.046Z,8.07
2023-05-25T06:13:48.729Z,9.27
2023-05-25T06:16:15.298Z,9.52
2023-05-25T06:18:41.838Z,9.52
2023-05-25T06:21:08.655Z,7.50
2023-05-25T06:23:35.825Z,8.90
2023-05-25T06:26:06.366Z,9.32
2023-05-25T06:28:34.917Z,9.00
2023-05-25T06:33:28.748Z,9.18
2023-05-25T06:35:58.270Z,7.88
2023-05-25T06:38:24.881Z,8.18
2023-05-25T06:40:51.312Z,7.60
2023-05-25T06:43:19.187Z,7.78
2023-05-25T06:45:46.312Z,7.55
2023-05-25T06:48:12.968Z,7.85
2023-05-25T06:50:40.271Z,7.63
2023-05-25T06:53:06.782Z,7.70
2023-05-25T06:55:33.399Z,8.00
2023-05-25T06:58:00.091Z,8.98
2023-05-25T07:00:26.926Z,6.93
2023-05-25T07:02:53.880Z,8.20
2023-05-25T07:05:20.837Z,8.02
2023-05-25T07:07:48.676Z,7.72
2023-05-25T07:10:15.227Z,8.70
2023-05-25T07:12:41.712Z,7.30
2023-05-25T07:15:08.810Z,7.57
2023-05-25T07:17:36.672Z,6.63
2023-05-25T07:20:04.676Z,6.20
2023-05-25T07:22:32.454Z,6.80
2023-05-25T07:24:59.178Z,6.33
2023-05-25T07:27:26.153Z,7.25
2023-05-25T07:29:52.570Z,7.50
2023-05-25T07:32:19.301Z,8.48
2023-05-25T07:34:45.685Z,6.75
2023-05-25T07:37:12.107Z,7.45
2023-05-25T07:39:40.687Z,6.57
2023-05-25T07:44:33.875Z,8.10
2023-05-25T07:47:00.392Z,8.10
2023-05-25T07:49:28.401Z,7.95
2023-05-25T07:51:55.137Z,7.55
2023-05-25T07:54:21.942Z,7.82
2023-05-25T07:56:48.367Z,8.23
2023-05-25T07:59:14.811Z,6.85
2023-05-25T08:01:41.334Z,7.47
2023-05-25T08:04:08.135Z,8.68
2023-05-25T08:06:34.676Z,9.10
2023-05-25T08:09:02.960Z,8.18
2023-05-25T08:11:29.454Z,8.00
2023-05-25T08:13:55.990Z,8.45
2023-05-25T08:16:24.752Z,8.65
2023-05-25T08:18:51.668Z,8.35
2023-05-25T08:21:18.629Z,8.48
2023-05-25T08:23:45.297Z,8.27
2023-05-25T08:26:29.064Z,8.38
2023-05-25T08:28:58.724Z,8.55
2023-05-25T08:31:25.171Z,8.05
2023-05-25T08:33:52.926Z,7.93
2023-05-25T08:36:19.699Z,8.00
2023-05-25T08:38:46.311Z,8.20
2023-05-25T08:41:13.276Z,7.50
2023-05-25T08:43:41.778Z,7.40
2023-05-25T08:46:09.082Z,7.78
2023-05-25T08:48:41.654Z,6.97
2023-05-25T08:51:11.657Z,7.78
2023-05-25T08:53:40.669Z,7.30
2023-05-25T08:56:13.711Z,7.40
2023-05-25T08:58:46.353Z,6.53
2023-05-25T09:01:18.483Z,7.15
2023-05-25T09:03:46.673Z,6.70
2023-05-25T09:06:14.150Z,7.45
2023-05-25T09:08:41.047Z,7.30
2023-05-25T09:11:08.054Z,7.68
2023-05-25T09:13:35.565Z,7.28
2023-05-25T09:16:02.247Z,7.75
2023-05-25T09:18:28.765Z,7.53
2023-05-25T09:20:55.849Z,7.15
2023-05-25T09:23:24.014Z,8.65
2023-05-25T09:25:51.543Z,8.73
2023-05-25T09:30:53.219Z,7.10
2023-05-25T09:33:20.207Z,8.43
2023-05-25T09:35:49.166Z,8.43
2023-05-25T09:38:17.044Z,8.40
2023-05-25T09:40:44.955Z,8.95
2023-05-25T09:43:17.215Z,10.35
2023-05-25T09:45:52.358Z,10.63
2023-05-25T09:48:23.392Z,10.98
2023-05-25T09:50:51.404Z,10.40
2023-05-25T09:53:18.906Z,10.35
2023-05-25T09:55:53.729Z,10.10
2023-05-25T09:58:24.942Z,11.52
2023-05-25T10:00:54.613Z,10.98
2023-05-25T10:03:21.670Z,12.18
2023-05-25T10:05:48.628Z,11.13
2023-05-25T10:08:17.774Z,10.35
2023-05-25T10:10:45.578Z,10.27
2023-05-25T10:13:13.783Z,10.40
2023-05-25T10:15:43.144Z,10.65
2023-05-25T10:18:12.239Z,10.35
2023-05-25T10:23:10.754Z,8.68
2023-05-25T10:25:44.833Z,9.27
2023-05-25T10:28:18.373Z,9.13
2023-05-25T10:30:45.575Z,9.35
2023-05-25T10:33:12.622Z,8.88
2023-05-25T10:36:01.538Z,10.40
2023-05-25T10:38:31.474Z,8.73
2023-05-25T10:43:27.919Z,10.27
2023-05-25T10:45:56.907Z,9.25
2023-05-25T10:48:34.942Z,9.68
2023-05-25T10:51:01.572Z,9.30
2023-05-25T10:53:29.358Z,8.77
2023-05-25T10:56:22.388Z,9.70
2023-05-25T10:58:49.172Z,8.57
2023-05-25T11:01:16.135Z,10.88
2023-05-25T11:03:50.267Z,9.45
2023-05-25T11:06:22.147Z,9.10
2023-05-25T11:08:56.455Z,7.68
2023-05-25T11:11:49.771Z,8.88
2023-05-25T11:14:30.544Z,9.32
2023-05-25T11:17:18.723Z,7.85
2023-05-25T11:19:53.635Z,8.25
2023-05-25T11:22:31.241Z,8.45
2023-05-25T11:24:59.864Z,8.60
2023-05-25T11:30:00.516Z,7.82
2023-05-25T11:32:28.775Z,7.22
2023-05-25T11:34:58.137Z,8.30
2023-05-25T11:37:29.470Z,8.27
2023-05-25T11:39:55.962Z,6.80
2023-05-25T11:42:24.324Z,7.97
2023-05-25T11:44:51.332Z,8.88
2023-05-25T11:47:22.982Z,8.13
2023-05-25T11:49:50.244Z,9.55
2023-05-25T11:52:19.273Z,8.80
2023-05-25T11:54:46.391Z,8.43
2023-05-25T11:57:26.313Z,8.25
2023-05-25T11:59:54.446Z,9.15
2023-05-25T12:02:22.201Z,8.82
2023-05-25T12:05:04.678Z,9.23
2023-05-25T12:07:32.021Z,9.23
2023-05-25T12:10:09.879Z,9.07
2023-05-25T12:12:47.530Z,10.18
2023-05-25T12:15:22.311Z,8.70
2023-05-25T12:17:49.325Z,8.43
2023-05-25T12:20:17.490Z,8.98
2023-05-25T12:22:47.091Z,9.27
2023-05-25T12:25:16.465Z,9.38
2023-05-25T12:27:44.812Z,10.18
2023-05-25T12:30:11.733Z,9.43
2023-05-25T12:32:55.117Z,9.05
2023-05-25T12:35:21.892Z,9.00
2023-05-25T12:37:48.313Z,9.27
2023-05-25T12:40:20.567Z,9.57
2023-05-25T12:42:56.606Z,8.25
2023-05-25T12:45:23.620Z,8.65
2023-05-25T12:47:50.383Z,8.52
2023-05-25T12:50:17.979Z,9.57
2023-05-25T12:52:46.555Z,8.10
2023-05-25T12:55:25.982Z,9.80
2023-05-25T12:58:06.928Z,9.55
2023-05-25T13:00:41.387Z,9.27
2023-05-25T13:03:09.452Z,10.00
2023-05-25T13:05:37.510Z,9.07
2023-05-25T13:08:05.526Z,9.10
2023-05-25T13:10:36.679Z,9.30
2023-05-25T13:13:04.434Z,9.10
2023-05-25T13:15:30.914Z,8.85
2023-05-25T13:18:00.353Z,9.18
2023-05-25T13:20:31.293Z,9.32
2023-05-25T13:22:58.368Z,8.90
2023-05-25T13:25:28.118Z,7.70
2023-05-25T13:27:55.987Z,7.78
2023-05-25T13:30:23.133Z,7.93
2023-05-25T13:32:51.839Z,8.50
2023-05-25T13:35:23.930Z,7.00
2023-05-25T13:37:51.255Z,6.78
2023-05-25T13:40:18.456Z,6.50
2023-05-25T13:42:45.187Z,6.55
2023-05-25T13:45:11.901Z,6.40
2023-05-25T13:47:39.226Z,6.57
2023-05-25T13:50:07.296Z,7.07
2023-05-25T13:52:36.660Z,7.22
2023-05-25T13:55:03.295Z,7.68
2023-05-25T13:57:29.673Z,7.00
2023-05-25T13:59:56.221Z,7.43
2023-05-25T14:02:22.722Z,6.90
2023-05-25T14:04:49.360Z,7.18
2023-05-25T14:07:15.856Z,5.90
2023-05-25T14:09:42.427Z,6.20
2023-05-25T14:12:09.225Z,6.10
2023-05-25T14:14:35.657Z,6.07
2023-05-25T14:17:02.118Z,6.22
2023-05-25T14:19:29.803Z,6.35
2023-05-25T14:22:11.694Z,5.87
2023-05-25T14:24:39.699Z,6.80
2023-05-25T14:27:07.298Z,5.80
2023-05-25T14:29:34.016Z,5.60
2023-05-25T14:32:00.937Z,5.28
2023-05-25T14:34:27.880Z,5.75
2023-05-25T14:36:55.907Z,5.05
2023-05-25T14:39:22.464Z,5.18
2023-05-25T14:41:50.206Z,5.25
2023-05-25T14:44:16.837Z,5.80
2023-05-25T14:46:43.621Z,4.85
2023-05-25T14:49:14.223Z,5.55
2023-05-25T14:51:40.596Z,5.15
2023-05-25T14:54:08.314Z,5.10
2023-05-25T14:56:37.592Z,5.30
2023-05-25T14:59:04.058Z,4.88
2023-05-25T15:01:32.308Z,5.30
2023-05-25T15:03:58.945Z,5.32
2023-05-25T15:06:25.457Z,5.18
2023-05-25T15:08:52.076Z,5.40
2023-05-25T15:11:18.857Z,5.25
2023-05-25T15:13:46.149Z,5.57
2023-05-25T15:16:14.007Z,5.60
2023-05-25T15:18:40.533Z,5.60
2023-05-25T15:21:08.518Z,5.80
2023-05-25T15:23:35.060Z,6.18
2023-05-25T15:26:04.359Z,5.07
2023-05-25T15:28:31.425Z,4.70
2023-05-25T15:31:02.789Z,5.72
2023-05-25T15:33:47.141Z,5.30
2023-05-25T15:36:16.480Z,5.32
2023-05-25T15:38:45.849Z,5.60
2023-05-25T15:41:15.021Z,5.18
2023-05-25T15:43:44.179Z,5.05
2023-05-25T15:46:11.963Z,5.72
2023-05-25T15:48:39.186Z,5.70
2023-05-25T15:51:05.649Z,5.60
2023-05-25T15:53:33.525Z,5.80
2023-05-25T15:55:59.946Z,5.80
2023-05-25T15:58:26.353Z,5.22
2023-05-25T16:00:53.827Z,5.18
2023-05-25T16:03:20.267Z,5.28
2023-05-25T16:05:46.858Z,4.97
2023-05-25T16:08:14.238Z,5.03
2023-05-25T16:10:40.688Z,5.47
2023-05-25T16:13:07.361Z,6.22
2023-05-25T16:15:34.311Z,5.40
2023-05-25T16:18:01.448Z,5.50
2023-05-25T16:20:27.998Z,5.75
2023-05-25T16:22:54.779Z,4.97
2023-05-25T16:25:21.497Z,4.80
2023-05-25T16:27:47.850Z,4.65
2023-05-25T16:30:14.651Z,5.57
2023-05-25T16:32:41.372Z,4.72
2023-05-25T16:35:09.304Z,4.10
2023-05-25T16:37:36.085Z,4.25
2023-05-25T16:40:02.634Z,5.47
2023-05-25T16:42:33.352Z,5.05
2023-05-25T16:44:59.723Z,5.15
2023-05-25T16:47:26.131Z,5.03
2023-05-25T16:49:52.750Z,4.72
2023-05-25T16:52:19.115Z,5.60
2023-05-25T16:54:45.617Z,4.80
2023-05-25T16:57:12.158Z,4.25
2023-05-25T16:59:39.561Z,4.80
2023-05-25T17:02:06.611Z,4.65
2023-05-25T17:04:33.046Z,5.18
2023-05-25T17:06:59.513Z,5.38
2023-05-25T17:09:27.277Z,4.63
2023-05-25T17:11:54.186Z,4.57
2023-05-25T17:14:20.751Z,5.03
2023-05-25T17:16:47.388Z,4.00
2023-05-25T17:19:15.208Z,4.72
2023-05-25T17:21:41.947Z,4.40
2023-05-25T17:24:08.488Z,4.43
2023-05-25T17:26:35.214Z,4.43
2023-05-25T17:29:03.139Z,4.40
2023-05-25T17:31:30.258Z,4.10
2023-05-25T17:33:56.813Z,4.68
2023-05-25T17:36:23.530Z,4.13
2023-05-25T17:38:50.186Z,4.60
2023-05-25T17:41:17.210Z,4.65
2023-05-25T17:43:46.259Z,4.43
2023-05-25T17:46:12.749Z,4.70
2023-05-25T17:48:39.591Z,4.30
2023-05-25T17:51:06.043Z,4.15
2023-05-25T17:53:32.695Z,4.10
2023-05-25T17:56:01.538Z,4.20
2023-05-25T17:58:27.913Z,4.55
2023-05-25T18:00:54.384Z,3.85
2023-05-25T18:03:22.341Z,4.53
2023-05-25T18:05:48.789Z,4.97
2023-05-25T18:08:15.775Z,4.57
2023-05-25T18:10:42.411Z,5.03
2023-05-25T18:13:09.915Z,4.75
2023-05-25T18:15:36.349Z,4.65
2023-05-25T18:18:05.821Z,4.97
2023-05-25T18:20:32.657Z,6.00
2023-05-25T18:23:00.663Z,5.78
2023-05-25T18:25:27.366Z,4.80
2023-05-25T18:27:53.757Z,4.88
2023-05-25T18:30:20.253Z,4.68
2023-05-25T18:32:47.033Z,4.78
2023-05-25T18:35:14.574Z,4.57
2023-05-25T18:37:41.145Z,4.63
2023-05-25T18:40:08.460Z,4.32
2023-05-25T18:42:35.309Z,5.03
2023-05-25T18:45:01.948Z,4.47
2023-05-25T18:47:28.420Z,5.07
2023-05-25T18:49:54.954Z,4.72
2023-05-25T18:52:22.548Z,5.00
2023-05-25T18:54:49.587Z,4.75
2023-05-25T18:57:17.785Z,4.53
2023-05-25T18:59:45.655Z,4.72
2023-05-25T19:02:12.317Z,4.97
2023-05-25T19:04:39.084Z,5.20
2023-05-25T19:07:05.474Z,5.00
2023-05-25T19:09:31.891Z,4.75
2023-05-25T19:11:58.338Z,5.55
2023-05-25T19:14:26.205Z,5.22
2023-05-25T19:16:52.732Z,4.88
2023-05-25T19:19:19.213Z,5.05
2023-05-25T19:21:45.921Z,6.47
2023-05-25T19:24:12.945Z,6.22
2023-05-25T19:26:39.384Z,5.70
2023-05-25T19:29:06.931Z,5.72
2023-05-25T19:31:34.899Z,5.43
2023-05-25T19:34:01.444Z,5.78
2023-05-25T19:36:28.241Z,5.20
2023-05-25T19:38:54.855Z,6.32
2023-05-25T19:41:21.261Z,4.78
2023-05-25T19:43:47.938Z,4.53
2023-05-25T19:46:15.593Z,4.95
2023-05-25T19:48:42.553Z,5.33
2023-05-25T19:51:09.003Z,6.10
2023-05-25T19:53:36.824Z,5.68
2023-05-25T19:56:03.447Z,5.10
2023-05-25T19:58:29.870Z,5.10
2023-05-25T20:00:57.558Z,5.57
2023-05-25T20:03:24.149Z,5.23
2023-05-25T20:05:50.721Z,5.80
2023-05-25T20:08:17.470Z,6.00
2023-05-25T20:10:45.067Z,6.38
2023-05-25T20:13:12.493Z,4.73
2023-05-25T20:15:39.175Z,5.80
2023-05-25T20:18:07.735Z,5.38
2023-05-25T20:23:01.464Z,5.32
2023-05-25T20:25:28.741Z,5.22
2023-05-25T20:27:55.476Z,5.88
2023-05-25T20:30:22.056Z,5.45
2023-05-25T20:32:49.346Z,6.30
2023-05-25T20:35:30.106Z,6.63
2023-05-25T20:37:56.809Z,6.47
2023-05-25T20:40:23.178Z,6.07
2023-05-25T20:42:49.588Z,8.07
2023-05-25T20:45:16.362Z,10.85
2023-05-25T20:47:42.843Z,9.93
2023-05-25T20:50:09.512Z,7.43
2023-05-25T20:52:36.268Z,7.97
2023-05-25T20:55:02.754Z,6.97
2023-05-25T20:57:30.020Z,7.05
2023-05-25T20:59:59.674Z,6.90
2023-05-25T21:02:28.303Z,6.88
2023-05-25T21:07:21.786Z,7.43
2023-05-25T21:09:48.411Z,9.35
2023-05-25T21:12:14.933Z,6.90
2023-05-25T21:14:43.881Z,7.47
2023-05-25T21:17:10.662Z,6.88
2023-05-25T21:19:37.976Z,6.35
2023-05-25T21:22:04.770Z,5.72
2023-05-25T21:24:32.342Z,6.13
2023-05-25T21:26:58.701Z,6.82
2023-05-25T21:29:25.078Z,7.13
2023-05-25T21:31:52.603Z,6.95
2023-05-25T21:34:19.138Z,6.88
2023-05-25T21:36:45.797Z,6.38
2023-05-25T21:39:12.298Z,7.05
2023-05-25T21:41:38.786Z,8.50
2023-05-25T21:44:05.273Z,6.78
2023-05-25T21:46:32.819Z,6.75
2023-05-25T21:48:59.458Z,6.95
2023-05-25T21:51:25.906Z,6.38
2023-05-25T21:53:52.622Z,6.90
2023-05-25T21:56:18.977Z,6.30
2023-05-25T21:58:47.619Z,7.28
2023-05-25T22:03:40.587Z,7.22
2023-05-25T22:06:08.879Z,7.40
2023-05-25T22:08:35.754Z,6.32
2023-05-25T22:11:02.198Z,6.50
2023-05-25T22:13:29.780Z,6.40
2023-05-25T22:15:56.208Z,7.40
2023-05-25T22:18:22.612Z,6.32
2023-05-25T22:20:49.087Z,6.00
2023-05-25T22:23:15.901Z,7.53
2023-05-25T22:25:42.516Z,6.55
2023-05-25T22:28:10.276Z,6.93
2023-05-25T22:30:36.767Z,5.95
2023-05-25T22:33:05.237Z,5.72
2023-05-25T22:35:31.725Z,5.82
2023-05-25T22:37:58.118Z,7.00
2023-05-25T22:40:25.125Z,6.22
2023-05-25T22:42:51.903Z,5.65
2023-05-25T22:45:19.948Z,6.40
2023-05-25T22:47:46.577Z,5.93
2023-05-25T22:50:13.361Z,5.78
2023-05-25T22:52:42.832Z,6.10
2023-05-25T22:55:09.767Z,6.15
2023-05-25T22:57:36.598Z,5.82
2023-05-25T23:00:05.536Z,5.93
2023-05-25T23:02:32.068Z,5.60
2023-05-25T23:04:58.786Z,5.15
2023-05-25T23:07:25.298Z,5.97
2023-05-25T23:09:51.957Z,5.88
2023-05-25T23:12:18.365Z,5.65
2023-05-25T23:14:45.043Z,5.25
2023-05-25T23:17:11.494Z,6.40
2023-05-25T23:19:38.625Z,5.95
2023-05-25T23:22:05.290Z,5.80
2023-05-25T23:24:31.720Z,5.60
2023-05-25T23:26:58.077Z,5.90
2023-05-25T23:29:24.441Z,5.65
2023-05-25T23:31:50.844Z,5.57
2023-05-25T23:34:17.316Z,6.47
2023-05-25T23:36:43.820Z,5.88
2023-05-25T23:39:10.342Z,7.05
2023-05-25T23:41:37.132Z,5.72
2023-05-25T23:44:03.762Z,5.50
2023-05-25T23:46:33.365Z,5.55
2023-05-25T23:48:59.796Z,5.35
2023-05-25T23:51:26.376Z,4.85
2023-05-25T23:53:52.760Z,5.10
2023-05-25T23:56:19.286Z,6.05
2023-05-25T23:58:45.889Z,5.30
